createdAt,value
2019-05-23T00:00:46.219Z,99.90
2019-05-23T00:06:27.931Z,99.90
2019-05-23T00:11:57.391Z,99.90
2019-05-23T00:17:20.815Z,99.90
2019-05-23T00:22:27.410Z,99.90
2019-05-23T00:27:34.183Z,99.90
2019-05-23T00:32:48.186Z,99.90
2019-05-23T00:37:53.208Z,99.90
2019-05-23T00:42:58.256Z,99.90
2019-05-23T00:48:05.538Z,99.90
2019-05-23T00:53:10.811Z,99.90
2019-05-23T00:58:16.943Z,99.90
2019-05-23T01:03:22.563Z,99.90
2019-05-23T01:08:28.032Z,99.90
2019-05-23T01:13:33.376Z,99.90
2019-05-23T01:18:39.248Z,99.90
2019-05-23T01:23:48.727Z,99.90
2019-05-23T01:28:54.947Z,99.90
2019-05-23T01:34:00.081Z,99.90
2019-05-23T01:39:10.211Z,99.90
2019-05-23T01:44:16.401Z,99.90
2019-05-23T01:49:21.728Z,99.90
2019-05-23T01:54:27.353Z,99.90
2019-05-23T01:59:33.455Z,99.90
2019-05-23T02:04:38.655Z,99.90
2019-05-23T02:09:43.837Z,99.90
2019-05-23T02:14:49.915Z,99.90
2019-05-23T02:19:55.499Z,99.90
2019-05-23T02:25:01.836Z,99.90
2019-05-23T02:30:30.147Z,99.90
2019-05-23T02:35:18.622Z,99.90
2019-05-23T02:40:37.318Z,99.90
2019-05-23T02:45:45.444Z,99.90
2019-05-23T02:50:56.427Z,99.90
2019-05-23T02:56:05.760Z,99.90
2019-05-23T03:01:22.712Z,99.90
2019-05-23T03:06:28.335Z,99.90
2019-05-23T03:11:36.722Z,99.90
2019-05-23T03:16:44.156Z,99.90
2019-05-23T03:21:52.542Z,99.90
2019-05-23T03:27:05.131Z,99.90
2019-05-23T03:32:14.325Z,99.90
2019-05-23T03:37:20.231Z,99.90
2019-05-23T03:42:26.529Z,99.90
2019-05-23T03:47:33.231Z,99.90
2019-05-23T03:52:38.420Z,99.90
2019-05-23T03:57:43.651Z,99.90
2019-05-23T04:02:50.436Z,99.90
2019-05-23T04:07:56.828Z,99.90
2019-05-23T04:13:01.959Z,99.90
2019-05-23T04:18:07.585Z,99.90
2019-05-23T04:23:13.606Z,99.90
2019-05-23T04:28:19.603Z,99.90
2019-05-23T04:33:24.560Z,99.90
2019-05-23T04:38:29.989Z,99.90
2019-05-23T04:43:34.932Z,99.90
2019-05-23T04:48:41.066Z,99.90
2019-05-23T04:53:46.020Z,99.90
2019-05-23T04:58:52.417Z,99.50
2019-05-23T05:03:59.732Z,99.90
2019-05-23T05:09:08.668Z,99.60
2019-05-23T05:14:13.856Z,99.70
2019-05-23T05:19:19.615Z,99.80
2019-05-23T05:24:33.351Z,99.90
2019-05-23T05:29:42.891Z,99.50
2019-05-23T05:34:47.957Z,99.30
2019-05-23T05:39:53.000Z,99.30
2019-05-23T05:44:58.605Z,99.10
2019-05-23T05:50:06.897Z,99.00
2019-05-23T05:55:12.612Z,99.00
2019-05-23T06:00:28.926Z,98.90
2019-05-23T06:05:39.230Z,98.50
2019-05-23T06:10:45.210Z,98.80
2019-05-23T06:15:51.035Z,98.70
2019-05-23T06:20:56.415Z,98.80
2019-05-23T06:26:01.702Z,98.70
2019-05-23T06:31:07.766Z,98.80
2019-05-23T06:36:13.348Z,98.60
2019-05-23T06:41:20.151Z,98.50
2019-05-23T06:46:25.648Z,97.80
2019-05-23T06:51:31.546Z,98.30
2019-05-23T06:56:36.848Z,97.80
2019-05-23T07:01:41.883Z,97.50
2019-05-23T07:12:25.982Z,97.90
2019-05-23T07:17:31.655Z,97.20
2019-05-23T07:22:37.051Z,97.20
2019-05-23T07:27:42.293Z,96.80
2019-05-23T07:32:47.411Z,96.30
2019-05-23T07:37:52.461Z,96.80
2019-05-23T07:42:57.723Z,97.10
2019-05-23T07:48:04.695Z,96.90
2019-05-23T07:53:11.454Z,96.70
2019-05-23T07:58:18.219Z,95.50
2019-05-23T08:03:28.655Z,96.20
2019-05-23T08:08:33.799Z,96.20
2019-05-23T08:13:39.234Z,95.80
2019-05-23T08:18:44.386Z,95.90
2019-05-23T08:23:49.435Z,95.00
2019-05-23T08:29:22.341Z,95.00
2019-05-23T08:34:01.224Z,95.00
2019-05-23T08:39:08.690Z,95.60
2019-05-23T08:44:14.042Z,95.00
2019-05-23T08:49:19.334Z,94.70
2019-05-23T08:54:24.386Z,93.90
2019-05-23T08:59:29.996Z,93.30
2019-05-23T09:04:35.906Z,93.60
2019-05-23T09:09:41.522Z,93.10
2019-05-23T09:14:47.015Z,92.10
2019-05-23T09:19:52.068Z,92.10
2019-05-23T09:24:57.219Z,91.00
2019-05-23T09:30:04.597Z,91.20
2019-05-23T09:35:20.200Z,88.80
2019-05-23T09:40:17.404Z,86.60
2019-05-23T09:45:22.967Z,87.20
2019-05-23T09:50:28.667Z,85.10
2019-05-23T09:55:34.691Z,83.90
2019-05-23T10:00:41.736Z,85.90
2019-05-23T10:05:47.183Z,82.30
2019-05-23T10:10:52.281Z,83.10
2019-05-23T10:15:58.960Z,82.20
2019-05-23T10:21:04.215Z,77.30
2019-05-23T10:26:10.098Z,78.90
2019-05-23T10:31:15.458Z,79.40
2019-05-23T10:36:20.671Z,78.80
2019-05-23T10:41:25.855Z,79.60
2019-05-23T10:46:31.846Z,79.30
2019-05-23T10:51:36.951Z,79.40
2019-05-23T10:56:41.986Z,78.80
2019-05-23T11:01:47.140Z,82.10
2019-05-23T11:06:52.306Z,82.10
2019-05-23T11:11:57.596Z,80.90
2019-05-23T11:17:03.846Z,78.90
2019-05-23T11:22:09.635Z,76.20
2019-05-23T11:27:16.888Z,78.40
2019-05-23T11:32:22.702Z,77.50
2019-05-23T11:37:27.967Z,79.90
2019-05-23T11:42:33.279Z,74.00
2019-05-23T11:47:38.381Z,73.10
2019-05-23T11:52:43.665Z,67.90
2019-05-23T11:57:48.792Z,70.60
2019-05-23T12:02:54.525Z,68.60
2019-05-23T12:07:59.575Z,67.40
2019-05-23T12:13:04.730Z,66.90
2019-05-23T12:18:09.996Z,61.70
2019-05-23T12:23:15.172Z,62.80
2019-05-23T12:28:20.265Z,61.60
2019-05-23T12:33:25.436Z,59.70
2019-05-23T12:38:30.456Z,58.80
2019-05-23T12:43:35.589Z,59.00
2019-05-23T12:48:45.299Z,58.80
2019-05-23T12:53:51.520Z,59.20
2019-05-23T12:58:57.408Z,57.20
2019-05-23T13:04:02.600Z,58.60
2019-05-23T13:09:09.685Z,60.00
2019-05-23T13:14:15.060Z,59.80
2019-05-23T13:19:20.422Z,56.80
2019-05-23T13:24:26.123Z,57.00
2019-05-23T13:29:31.636Z,57.40
2019-05-23T13:34:36.899Z,54.90
2019-05-23T13:39:42.066Z,55.90
2019-05-23T13:44:47.783Z,56.80
2019-05-23T13:49:52.989Z,57.30
2019-05-23T13:54:59.800Z,58.20
2019-05-23T14:00:08.495Z,57.00
2019-05-23T14:05:18.684Z,57.30
2019-05-23T14:10:21.481Z,59.10
2019-05-23T14:15:28.130Z,56.90
2019-05-23T14:20:33.572Z,58.20
2019-05-23T14:25:39.334Z,56.10
2019-05-23T14:30:53.152Z,55.40
2019-05-23T14:36:02.809Z,59.30
2019-05-23T14:41:09.087Z,55.80
2019-05-23T14:46:16.065Z,58.80
2019-05-23T14:51:40.589Z,56.50
2019-05-23T14:56:46.268Z,55.00
2019-05-23T15:01:51.579Z,56.20
2019-05-23T15:06:56.552Z,56.00
2019-05-23T15:12:02.059Z,55.70
2019-05-23T15:17:07.644Z,55.90
2019-05-23T15:22:12.824Z,54.60
2019-05-23T15:27:18.007Z,55.60
2019-05-23T15:32:23.467Z,56.30
2019-05-23T15:37:28.596Z,56.30
2019-05-23T15:42:33.743Z,54.80
2019-05-23T15:47:38.956Z,56.60
2019-05-23T15:52:48.355Z,57.30
2019-05-23T15:58:05.920Z,56.50
2019-05-23T16:03:31.602Z,56.00
2019-05-23T16:08:38.587Z,56.40
2019-05-23T16:13:43.685Z,54.80
2019-05-23T16:18:49.396Z,54.40
2019-05-23T16:23:54.380Z,53.00
2019-05-23T16:28:59.405Z,56.30
2019-05-23T16:34:04.683Z,56.10
2019-05-23T16:39:09.796Z,55.60
2019-05-23T16:44:14.948Z,52.20
2019-05-23T16:49:19.984Z,50.50
2019-05-23T16:54:26.749Z,47.30
2019-05-23T16:59:33.427Z,48.90
2019-05-23T17:04:48.996Z,48.10
2019-05-23T17:10:07.364Z,50.80
2019-05-23T17:15:07.060Z,50.30
2019-05-23T17:20:20.569Z,51.90
2019-05-23T17:25:36.343Z,52.00
2019-05-23T17:30:54.785Z,53.10
2019-05-23T17:35:59.945Z,55.20
2019-05-23T17:41:05.342Z,54.50
2019-05-23T17:46:10.357Z,55.20
2019-05-23T17:51:16.111Z,56.30
2019-05-23T17:56:21.334Z,57.20
2019-05-23T18:01:26.676Z,58.10
2019-05-23T18:06:31.782Z,58.70
2019-05-23T18:11:37.457Z,59.60
2019-05-23T18:16:42.953Z,61.30
2019-05-23T18:21:48.096Z,69.20
2019-05-23T18:26:53.328Z,68.40
2019-05-23T18:31:59.115Z,69.30
2019-05-23T18:37:05.205Z,67.30
2019-05-23T18:42:10.392Z,74.20
2019-05-23T18:47:17.189Z,76.70
2019-05-23T18:52:22.424Z,77.00
2019-05-23T18:57:27.724Z,77.60
2019-05-23T19:02:33.567Z,78.40
2019-05-23T19:07:40.594Z,80.50
2019-05-23T19:12:45.711Z,80.40
2019-05-23T19:17:51.024Z,83.10
2019-05-23T19:22:56.145Z,81.00
2019-05-23T19:28:01.188Z,82.60
2019-05-23T19:33:08.219Z,82.60
2019-05-23T19:38:13.703Z,85.90
2019-05-23T19:43:19.492Z,85.20
2019-05-23T19:48:25.551Z,79.90
2019-05-23T19:53:31.066Z,79.80
2019-05-23T19:58:36.236Z,78.70
2019-05-23T20:03:43.087Z,79.20
2019-05-23T20:08:49.128Z,78.90
2019-05-23T20:13:54.151Z,80.50
2019-05-23T20:18:59.623Z,81.50
2019-05-23T20:24:04.840Z,82.40
2019-05-23T20:29:09.808Z,84.00
2019-05-23T20:34:14.809Z,84.00
2019-05-23T20:39:21.072Z,84.40
2019-05-23T20:44:26.157Z,84.10
2019-05-23T20:49:31.182Z,86.90
2019-05-23T20:54:36.130Z,87.70
2019-05-23T20:59:41.268Z,88.10
2019-05-23T21:04:46.382Z,89.40
2019-05-23T21:09:51.576Z,89.10
2019-05-23T21:14:57.663Z,90.00
2019-05-23T21:20:02.784Z,90.60
2019-05-23T21:25:09.412Z,89.40
2019-05-23T21:30:14.608Z,91.00
2019-05-23T21:35:19.806Z,91.20
2019-05-23T21:40:36.635Z,92.00
2019-05-23T21:45:41.991Z,91.80
2019-05-23T21:50:47.043Z,91.30
2019-05-23T21:55:52.343Z,91.10
2019-05-23T22:01:07.956Z,90.50
2019-05-23T22:06:14.907Z,91.80
2019-05-23T22:11:21.090Z,92.20
2019-05-23T22:16:26.371Z,91.70
2019-05-23T22:21:31.455Z,91.50
2019-05-23T22:26:36.657Z,91.00
2019-05-23T22:31:41.871Z,91.70
2019-05-23T22:36:47.047Z,92.70
2019-05-23T22:46:56.578Z,93.80
2019-05-23T22:52:01.684Z,94.60
2019-05-23T22:57:06.978Z,92.70
2019-05-23T23:02:14.811Z,92.20
2019-05-23T23:07:20.172Z,92.20
2019-05-23T23:12:25.292Z,92.40
2019-05-23T23:17:31.643Z,91.60
2019-05-23T23:22:37.427Z,94.40
2019-05-23T23:27:42.391Z,95.90
2019-05-23T23:32:47.439Z,92.50
2019-05-23T23:37:52.486Z,92.90
2019-05-23T23:42:57.519Z,92.60
2019-05-23T23:48:20.712Z,93.00
2019-05-23T23:53:44.046Z,97.00
2019-05-23T23:58:48.361Z,97.90
